sensor_id;sensor_type;location;lat;lon;timestamp;P1;P2;P0
72307;PMS5003;60257;42.638;23.376;2023-07-16T00:00:08;28.00;27.00;20.00
72307;PMS5003;60257;42.638;23.376;2023-07-16T00:02:35;32.50;30.25;21.00
72307;PMS5003;60257;42.638;23.376;2023-07-16T00:05:02;30.50;28.50;19.00
72307;PMS5003;60257;42.638;23.376;2023-07-16T00:07:28;27.25;27.25;21.00
72307;PMS5003;60257;42.638;23.376;2023-07-16T00:09:54;29.50;27.25;19.00
72307;PMS5003;60257;42.638;23.376;2023-07-16T00:12:19;26.00;25.00;17.00
72307;PMS5003;60257;42.638;23.376;2023-07-16T00:14:44;30.75;27.25;20.00
72307;PMS5003;60257;42.638;23.376;2023-07-16T00:17:10;28.25;27.50;18.50
72307;PMS5003;60257;42.638;23.376;2023-07-16T00:19:36;33.25;31.00;21.00
72307;PMS5003;60257;42.638;23.376;2023-07-16T00:22:02;24.75;24.75;17.25
72307;PMS5003;60257;42.638;23.376;2023-07-16T00:24:28;31.50;31.25;21.25
72307;PMS5003;60257;42.638;23.376;2023-07-16T00:26:54;28.75;27.50;18.25
72307;PMS5003;60257;42.638;23.376;2023-07-16T00:29:19;27.25;26.25;18.00
72307;PMS5003;60257;42.638;23.376;2023-07-16T00:31:44;25.00;25.00;17.25
72307;PMS5003;60257;42.638;23.376;2023-07-16T00:34:10;28.50;25.25;17.00
72307;PMS5003;60257;42.638;23.376;2023-07-16T00:36:37;21.75;21.75;16.00
72307;PMS5003;60257;42.638;23.376;2023-07-16T00:39:03;26.75;26.50;16.00
72307;PMS5003;60257;42.638;23.376;2023-07-16T00:41:28;27.75;27.75;19.50
72307;PMS5003;60257;42.638;23.376;2023-07-16T00:43:53;26.50;25.00;18.25
72307;PMS5003;60257;42.638;23.376;2023-07-16T00:46:19;25.00;25.00;17.75
72307;PMS5003;60257;42.638;23.376;2023-07-16T00:48:45;29.25;28.25;21.00
72307;PMS5003;60257;42.638;23.376;2023-07-16T00:51:10;30.75;26.25;17.00
72307;PMS5003;60257;42.638;23.376;2023-07-16T00:53:38;24.75;23.00;16.00
72307;PMS5003;60257;42.638;23.376;2023-07-16T00:56:05;25.50;25.50;17.25
72307;PMS5003;60257;42.638;23.376;2023-07-16T00:58:33;26.00;25.00;15.25
72307;PMS5003;60257;42.638;23.376;2023-07-16T01:00:59;28.25;23.75;15.75
72307;PMS5003;60257;42.638;23.376;2023-07-16T01:03:24;23.75;22.50;13.25
72307;PMS5003;60257;42.638;23.376;2023-07-16T01:08:34;23.25;23.00;13.25
72307;PMS5003;60257;42.638;23.376;2023-07-16T01:11:10;20.00;19.00;15.00
72307;PMS5003;60257;42.638;23.376;2023-07-16T01:13:36;17.75;17.50;13.50
72307;PMS5003;60257;42.638;23.376;2023-07-16T01:16:02;24.00;20.75;13.25
72307;PMS5003;60257;42.638;23.376;2023-07-16T01:18:27;24.75;23.75;16.50
72307;PMS5003;60257;42.638;23.376;2023-07-16T01:20:53;23.50;23.25;14.25
72307;PMS5003;60257;42.638;23.376;2023-07-16T01:26:24;25.00;21.50;13.50
72307;PMS5003;60257;42.638;23.376;2023-07-16T01:31:54;26.50;24.00;16.50
72307;PMS5003;60257;42.638;23.376;2023-07-16T01:34:20;22.25;22.25;13.50
72307;PMS5003;60257;42.638;23.376;2023-07-16T01:36:46;22.25;20.00;14.25
72307;PMS5003;60257;42.638;23.376;2023-07-16T01:39:13;13.50;12.25;9.00
72307;PMS5003;60257;42.638;23.376;2023-07-16T01:41:39;21.00;19.75;13.25
72307;PMS5003;60257;42.638;23.376;2023-07-16T01:44:04;19.75;19.00;14.00
72307;PMS5003;60257;42.638;23.376;2023-07-16T01:46:31;18.75;18.75;13.50
72307;PMS5003;60257;42.638;23.376;2023-07-16T01:48:57;25.00;20.25;13.25
72307;PMS5003;60257;42.638;23.376;2023-07-16T01:51:22;19.50;18.50;12.25
72307;PMS5003;60257;42.638;23.376;2023-07-16T01:53:48;21.75;20.75;14.50
72307;PMS5003;60257;42.638;23.376;2023-07-16T01:56:14;20.50;20.00;13.00
72307;PMS5003;60257;42.638;23.376;2023-07-16T01:58:39;21.00;21.00;13.00
72307;PMS5003;60257;42.638;23.376;2023-07-16T02:01:05;18.00;17.50;11.75
72307;PMS5003;60257;42.638;23.376;2023-07-16T02:03:30;18.75;18.75;12.25
72307;PMS5003;60257;42.638;23.376;2023-07-16T02:05:56;22.75;22.75;15.25
72307;PMS5003;60257;42.638;23.376;2023-07-16T02:08:24;18.75;18.00;13.25
72307;PMS5003;60257;42.638;23.376;2023-07-16T02:10:50;22.50;18.25;13.00
72307;PMS5003;60257;42.638;23.376;2023-07-16T02:13:15;21.00;18.25;12.50
72307;PMS5003;60257;42.638;23.376;2023-07-16T02:15:42;21.00;19.50;13.75
72307;PMS5003;60257;42.638;23.376;2023-07-16T02:18:08;20.00;20.00;14.00
72307;PMS5003;60257;42.638;23.376;2023-07-16T02:20:33;20.75;19.75;13.50
72307;PMS5003;60257;42.638;23.376;2023-07-16T02:22:59;18.50;15.75;13.00
72307;PMS5003;60257;42.638;23.376;2023-07-16T02:25:24;10.50;10.50;4.00
72307;PMS5003;60257;42.638;23.376;2023-07-16T02:27:50;17.25;15.50;11.75
72307;PMS5003;60257;42.638;23.376;2023-07-16T02:30:16;17.50;16.00;11.00
72307;PMS5003;60257;42.638;23.376;2023-07-16T02:32:42;19.00;19.00;11.00
72307;PMS5003;60257;42.638;23.376;2023-07-16T02:35:08;20.75;20.00;12.25
72307;PMS5003;60257;42.638;23.376;2023-07-16T02:37:33;20.50;20.50;13.25
72307;PMS5003;60257;42.638;23.376;2023-07-16T02:39:59;17.00;14.75;10.75
72307;PMS5003;60257;42.638;23.376;2023-07-16T02:42:24;20.50;19.00;11.25
72307;PMS5003;60257;42.638;23.376;2023-07-16T02:44:50;17.50;17.50;13.00
72307;PMS5003;60257;42.638;23.376;2023-07-16T02:47:15;14.50;14.50;10.25
72307;PMS5003;60257;42.638;23.376;2023-07-16T02:49:41;18.00;18.00;11.25
72307;PMS5003;60257;42.638;23.376;2023-07-16T02:52:06;19.25;19.00;9.50
72307;PMS5003;60257;42.638;23.376;2023-07-16T02:54:32;18.25;18.25;12.50
72307;PMS5003;60257;42.638;23.376;2023-07-16T02:57:00;19.25;18.00;12.50
72307;PMS5003;60257;42.638;23.376;2023-07-16T02:59:25;18.00;18.00;11.50
72307;PMS5003;60257;42.638;23.376;2023-07-16T03:01:51;17.00;15.50;11.25
72307;PMS5003;60257;42.638;23.376;2023-07-16T03:04:16;17.25;17.25;11.00
72307;PMS5003;60257;42.638;23.376;2023-07-16T03:06:42;21.75;21.75;12.25
72307;PMS5003;60257;42.638;23.376;2023-07-16T03:09:07;20.50;20.50;13.50
72307;PMS5003;60257;42.638;23.376;2023-07-16T03:11:33;18.50;18.50;11.25
72307;PMS5003;60257;42.638;23.376;2023-07-16T03:13:58;21.50;19.50;12.50
72307;PMS5003;60257;42.638;23.376;2023-07-16T03:16:24;12.50;11.50;8.25
72307;PMS5003;60257;42.638;23.376;2023-07-16T03:18:49;19.00;19.00;11.00
72307;PMS5003;60257;42.638;23.376;2023-07-16T03:21:14;20.25;19.25;12.25
72307;PMS5003;60257;42.638;23.376;2023-07-16T03:23:40;19.75;18.00;11.75
72307;PMS5003;60257;42.638;23.376;2023-07-16T03:26:06;19.25;18.00;10.75
72307;PMS5003;60257;42.638;23.376;2023-07-16T03:28:31;21.25;20.00;13.25
72307;PMS5003;60257;42.638;23.376;2023-07-16T03:30:56;17.25;17.25;11.50
72307;PMS5003;60257;42.638;23.376;2023-07-16T03:33:22;18.75;18.25;12.25
72307;PMS5003;60257;42.638;23.376;2023-07-16T03:35:48;15.25;15.25;11.00
72307;PMS5003;60257;42.638;23.376;2023-07-16T03:38:14;13.50;13.50;12.00
72307;PMS5003;60257;42.638;23.376;2023-07-16T03:40:41;18.50;18.50;11.50
72307;PMS5003;60257;42.638;23.376;2023-07-16T03:43:08;21.25;21.25;12.00
72307;PMS5003;60257;42.638;23.376;2023-07-16T03:45:36;15.75;15.50;12.50
72307;PMS5003;60257;42.638;23.376;2023-07-16T03:48:02;15.25;14.25;10.00
72307;PMS5003;60257;42.638;23.376;2023-07-16T03:50:27;19.50;19.50;12.25
72307;PMS5003;60257;42.638;23.376;2023-07-16T03:52:53;17.50;16.50;11.75
72307;PMS5003;60257;42.638;23.376;2023-07-16T03:55:18;16.00;16.00;9.50
72307;PMS5003;60257;42.638;23.376;2023-07-16T03:57:44;18.75;18.75;11.50
72307;PMS5003;60257;42.638;23.376;2023-07-16T04:00:10;17.75;16.50;11.00
72307;PMS5003;60257;42.638;23.376;2023-07-16T04:02:38;12.50;11.50;6.75
72307;PMS5003;60257;42.638;23.376;2023-07-16T04:05:04;18.75;18.50;11.00
72307;PMS5003;60257;42.638;23.376;2023-07-16T04:07:30;15.00;13.50;7.75
72307;PMS5003;60257;42.638;23.376;2023-07-16T04:09:55;18.50;17.00;11.75
72307;PMS5003;60257;42.638;23.376;2023-07-16T04:12:21;15.25;14.00;8.25
72307;PMS5003;60257;42.638;23.376;2023-07-16T04:14:46;19.75;19.75;14.25
72307;PMS5003;60257;42.638;23.376;2023-07-16T04:17:12;18.75;18.00;11.50
72307;PMS5003;60257;42.638;23.376;2023-07-16T04:19:38;12.00;12.00;10.00
72307;PMS5003;60257;42.638;23.376;2023-07-16T04:22:03;16.00;16.00;9.50
72307;PMS5003;60257;42.638;23.376;2023-07-16T04:24:30;16.00;15.50;11.75
72307;PMS5003;60257;42.638;23.376;2023-07-16T04:26:55;19.00;18.50;12.50
72307;PMS5003;60257;42.638;23.376;2023-07-16T04:29:21;15.75;15.75;10.25
72307;PMS5003;60257;42.638;23.376;2023-07-16T04:31:47;18.75;17.50;12.25
72307;PMS5003;60257;42.638;23.376;2023-07-16T04:34:12;18.25;16.25;11.75
72307;PMS5003;60257;42.638;23.376;2023-07-16T04:36:38;20.75;19.75;13.25
72307;PMS5003;60257;42.638;23.376;2023-07-16T04:39:06;16.50;15.50;11.00
72307;PMS5003;60257;42.638;23.376;2023-07-16T04:41:32;17.00;17.00;10.75
72307;PMS5003;60257;42.638;23.376;2023-07-16T04:43:57;20.25;20.25;13.00
72307;PMS5003;60257;42.638;23.376;2023-07-16T04:46:22;16.00;15.25;10.50
72307;PMS5003;60257;42.638;23.376;2023-07-16T04:48:48;15.25;14.75;11.25
72307;PMS5003;60257;42.638;23.376;2023-07-16T04:51:13;17.25;16.00;12.00
72307;PMS5003;60257;42.638;23.376;2023-07-16T04:53:39;14.25;14.25;10.00
72307;PMS5003;60257;42.638;23.376;2023-07-16T04:56:04;16.00;15.25;10.00
72307;PMS5003;60257;42.638;23.376;2023-07-16T04:58:37;10.75;10.75;6.00
72307;PMS5003;60257;42.638;23.376;2023-07-16T05:01:02;16.50;16.50;12.25
72307;PMS5003;60257;42.638;23.376;2023-07-16T05:03:28;20.50;18.00;12.50
72307;PMS5003;60257;42.638;23.376;2023-07-16T05:05:53;17.75;17.75;13.75
72307;PMS5003;60257;42.638;23.376;2023-07-16T05:08:19;20.25;20.25;12.75
72307;PMS5003;60257;42.638;23.376;2023-07-16T05:10:45;22.00;19.25;13.50
72307;PMS5003;60257;42.638;23.376;2023-07-16T05:13:10;17.50;17.00;11.75
72307;PMS5003;60257;42.638;23.376;2023-07-16T05:15:36;13.75;13.75;10.25
72307;PMS5003;60257;42.638;23.376;2023-07-16T05:18:02;15.25;15.25;11.25
72307;PMS5003;60257;42.638;23.376;2023-07-16T05:20:28;20.25;20.25;13.00
72307;PMS5003;60257;42.638;23.376;2023-07-16T05:22:53;15.00;15.00;10.25
72307;PMS5003;60257;42.638;23.376;2023-07-16T05:25:19;16.75;15.25;11.25
72307;PMS5003;60257;42.638;23.376;2023-07-16T05:27:44;17.25;15.75;13.00
72307;PMS5003;60257;42.638;23.376;2023-07-16T05:30:10;18.50;18.00;11.50
72307;PMS5003;60257;42.638;23.376;2023-07-16T05:32:35;16.50;14.75;10.00
72307;PMS5003;60257;42.638;23.376;2023-07-16T05:35:01;16.00;16.00;12.00
72307;PMS5003;60257;42.638;23.376;2023-07-16T05:37:26;14.00;14.00;10.50
72307;PMS5003;60257;42.638;23.376;2023-07-16T05:39:52;18.00;16.00;11.25
72307;PMS5003;60257;42.638;23.376;2023-07-16T05:42:17;17.00;16.25;14.00
72307;PMS5003;60257;42.638;23.376;2023-07-16T05:44:43;19.75;18.50;13.25
72307;PMS5003;60257;42.638;23.376;2023-07-16T05:47:09;22.50;20.75;14.50
72307;PMS5003;60257;42.638;23.376;2023-07-16T05:49:35;19.75;19.00;14.25
72307;PMS5003;60257;42.638;23.376;2023-07-16T05:52:00;19.75;19.75;13.25
72307;PMS5003;60257;42.638;23.376;2023-07-16T05:54:26;19.25;18.25;14.50
72307;PMS5003;60257;42.638;23.376;2023-07-16T05:56:51;15.25;15.25;12.25
72307;PMS5003;60257;42.638;23.376;2023-07-16T05:59:18;16.50;15.50;11.00
72307;PMS5003;60257;42.638;23.376;2023-07-16T06:01:43;17.00;17.00;13.75
72307;PMS5003;60257;42.638;23.376;2023-07-16T06:04:09;22.75;21.50;12.75
72307;PMS5003;60257;42.638;23.376;2023-07-16T06:06:34;21.00;21.00;13.50
72307;PMS5003;60257;42.638;23.376;2023-07-16T06:09:00;20.25;20.25;14.25
72307;PMS5003;60257;42.638;23.376;2023-07-16T06:11:25;23.50;20.75;13.00
72307;PMS5003;60257;42.638;23.376;2023-07-16T06:13:54;21.00;20.50;15.00
72307;PMS5003;60257;42.638;23.376;2023-07-16T06:16:22;22.50;21.25;17.25
72307;PMS5003;60257;42.638;23.376;2023-07-16T06:18:48;23.00;21.25;14.75
72307;PMS5003;60257;42.638;23.376;2023-07-16T06:21:13;22.00;21.00;13.00
72307;PMS5003;60257;42.638;23.376;2023-07-16T06:23:39;20.75;17.75;13.50
72307;PMS5003;60257;42.638;23.376;2023-07-16T06:26:05;21.25;20.75;14.00
72307;PMS5003;60257;42.638;23.376;2023-07-16T06:28:31;15.25;13.00;9.50
72307;PMS5003;60257;42.638;23.376;2023-07-16T06:30:56;15.00;15.00;11.00
72307;PMS5003;60257;42.638;23.376;2023-07-16T06:33:22;18.75;17.50;12.00
72307;PMS5003;60257;42.638;23.376;2023-07-16T06:35:47;18.50;18.50;13.00
72307;PMS5003;60257;42.638;23.376;2023-07-16T06:38:13;20.75;18.50;13.00
72307;PMS5003;60257;42.638;23.376;2023-07-16T06:40:40;16.25;16.25;13.00
72307;PMS5003;60257;42.638;23.376;2023-07-16T06:43:12;18.00;18.00;12.00
72307;PMS5003;60257;42.638;23.376;2023-07-16T06:45:37;17.75;16.25;13.25
72307;PMS5003;60257;42.638;23.376;2023-07-16T06:48:03;15.00;15.00;10.50
72307;PMS5003;60257;42.638;23.376;2023-07-16T06:50:28;18.75;17.75;12.25
72307;PMS5003;60257;42.638;23.376;2023-07-16T06:52:54;19.00;18.75;12.50
72307;PMS5003;60257;42.638;23.376;2023-07-16T06:55:19;17.25;17.25;11.50
72307;PMS5003;60257;42.638;23.376;2023-07-16T06:57:45;19.50;17.75;12.00
72307;PMS5003;60257;42.638;23.376;2023-07-16T07:00:10;18.75;18.00;10.75
72307;PMS5003;60257;42.638;23.376;2023-07-16T07:02:36;22.25;19.00;13.00
72307;PMS5003;60257;42.638;23.376;2023-07-16T07:05:02;21.25;19.75;14.25
72307;PMS5003;60257;42.638;23.376;2023-07-16T07:07:27;25.50;21.75;15.75
72307;PMS5003;60257;42.638;23.376;2023-07-16T07:09:53;19.50;18.75;12.75
72307;PMS5003;60257;42.638;23.376;2023-07-16T07:12:18;18.75;18.50;13.25
72307;PMS5003;60257;42.638;23.376;2023-07-16T07:14:43;22.00;22.00;14.25
72307;PMS5003;60257;42.638;23.376;2023-07-16T07:17:09;20.00;19.00;11.75
72307;PMS5003;60257;42.638;23.376;2023-07-16T07:19:34;20.25;19.25;12.25
72307;PMS5003;60257;42.638;23.376;2023-07-16T07:22:00;21.00;19.75;13.75
72307;PMS5003;60257;42.638;23.376;2023-07-16T07:24:25;16.75;16.00;12.00
72307;PMS5003;60257;42.638;23.376;2023-07-16T07:26:51;26.50;21.75;13.75
72307;PMS5003;60257;42.638;23.376;2023-07-16T07:29:16;20.75;19.00;13.00
72307;PMS5003;60257;42.638;23.376;2023-07-16T07:31:42;18.50;18.50;13.50
72307;PMS5003;60257;42.638;23.376;2023-07-16T07:34:07;18.75;18.25;12.00
72307;PMS5003;60257;42.638;23.376;2023-07-16T07:36:32;17.75;17.75;12.50
72307;PMS5003;60257;42.638;23.376;2023-07-16T07:38:58;19.25;18.00;11.25
72307;PMS5003;60257;42.638;23.376;2023-07-16T07:41:23;20.50;19.00;13.25
72307;PMS5003;60257;42.638;23.376;2023-07-16T07:43:49;23.25;23.25;16.00
72307;PMS5003;60257;42.638;23.376;2023-07-16T07:46:14;18.25;17.75;11.75
72307;PMS5003;60257;42.638;23.376;2023-07-16T07:48:40;18.00;16.75;12.25
72307;PMS5003;60257;42.638;23.376;2023-07-16T07:51:05;19.75;19.75;14.75
72307;PMS5003;60257;42.638;23.376;2023-07-16T07:53:31;20.00;20.00;14.25
72307;PMS5003;60257;42.638;23.376;2023-07-16T07:55:56;22.50;22.50;15.00
72307;PMS5003;60257;42.638;23.376;2023-07-16T07:58:22;18.75;18.25;12.25
72307;PMS5003;60257;42.638;23.376;2023-07-16T08:00:48;23.75;22.50;15.25
72307;PMS5003;60257;42.638;23.376;2023-07-16T08:03:13;21.00;19.50;14.00
72307;PMS5003;60257;42.638;23.376;2023-07-16T08:05:39;22.00;22.00;15.50
72307;PMS5003;60257;42.638;23.376;2023-07-16T08:08:04;21.00;21.00;15.50
72307;PMS5003;60257;42.638;23.376;2023-07-16T08:10:30;24.00;23.25;18.00
72307;PMS5003;60257;42.638;23.376;2023-07-16T08:12:55;27.25;27.25;19.25
72307;PMS5003;60257;42.638;23.376;2023-07-16T08:15:21;23.75;22.75;17.25
72307;PMS5003;60257;42.638;23.376;2023-07-16T08:17:46;25.50;25.50;18.50
72307;PMS5003;60257;42.638;23.376;2023-07-16T08:20:12;28.50;24.50;18.25
72307;PMS5003;60257;42.638;23.376;2023-07-16T08:22:38;22.50;21.25;13.50
72307;PMS5003;60257;42.638;23.376;2023-07-16T08:25:04;21.00;20.00;15.25
72307;PMS5003;60257;42.638;23.376;2023-07-16T08:27:31;23.25;21.50;15.25
72307;PMS5003;60257;42.638;23.376;2023-07-16T08:29:56;20.00;18.50;14.00
72307;PMS5003;60257;42.638;23.376;2023-07-16T08:32:22;25.75;23.75;16.50
72307;PMS5003;60257;42.638;23.376;2023-07-16T08:34:48;22.00;22.00;14.50
72307;PMS5003;60257;42.638;23.376;2023-07-16T08:37:14;25.50;24.50;19.00
72307;PMS5003;60257;42.638;23.376;2023-07-16T08:39:39;22.00;21.25;15.50
72307;PMS5003;60257;42.638;23.376;2023-07-16T08:42:05;28.00;28.00;20.25
72307;PMS5003;60257;42.638;23.376;2023-07-16T08:44:31;24.75;22.50;17.25
72307;PMS5003;60257;42.638;23.376;2023-07-16T08:46:57;23.75;22.00;14.75
72307;PMS5003;60257;42.638;23.376;2023-07-16T08:49:23;24.00;23.00;17.00
72307;PMS5003;60257;42.638;23.376;2023-07-16T08:51:50;24.25;23.50;17.00
72307;PMS5003;60257;42.638;23.376;2023-07-16T08:54:18;21.25;20.50;14.25
72307;PMS5003;60257;42.638;23.376;2023-07-16T08:56:44;30.75;30.75;20.25
72307;PMS5003;60257;42.638;23.376;2023-07-16T08:59:11;27.75;26.75;17.50
72307;PMS5003;60257;42.638;23.376;2023-07-16T09:01:37;23.50;23.50;15.25
72307;PMS5003;60257;42.638;23.376;2023-07-16T09:04:03;18.25;17.25;15.75
72307;PMS5003;60257;42.638;23.376;2023-07-16T09:06:29;24.00;24.00;17.50
72307;PMS5003;60257;42.638;23.376;2023-07-16T09:08:54;17.00;14.00;13.00
72307;PMS5003;60257;42.638;23.376;2023-07-16T09:11:20;16.25;16.25;11.75
72307;PMS5003;60257;42.638;23.376;2023-07-16T09:13:47;25.00;24.00;17.75
72307;PMS5003;60257;42.638;23.376;2023-07-16T09:16:13;27.25;26.00;18.75
72307;PMS5003;60257;42.638;23.376;2023-07-16T09:18:41;22.00;22.00;16.75
72307;PMS5003;60257;42.638;23.376;2023-07-16T09:21:07;22.25;22.25;17.25
72307;PMS5003;60257;42.638;23.376;2023-07-16T09:23:33;25.75;25.75;18.00
72307;PMS5003;60257;42.638;23.376;2023-07-16T09:25:59;28.25;25.75;19.50
72307;PMS5003;60257;42.638;23.376;2023-07-16T09:28:25;18.25;18.25;12.50
72307;PMS5003;60257;42.638;23.376;2023-07-16T09:30:51;28.75;26.75;18.50
72307;PMS5003;60257;42.638;23.376;2023-07-16T09:35:47;24.00;24.00;17.00
72307;PMS5003;60257;42.638;23.376;2023-07-16T09:38:13;27.25;26.00;17.25
72307;PMS5003;60257;42.638;23.376;2023-07-16T09:40:39;27.50;26.75;19.00
72307;PMS5003;60257;42.638;23.376;2023-07-16T09:43:08;24.75;24.75;16.50
72307;PMS5003;60257;42.638;23.376;2023-07-16T09:45:35;27.50;26.00;17.25
72307;PMS5003;60257;42.638;23.376;2023-07-16T09:48:02;22.00;21.25;17.50
72307;PMS5003;60257;42.638;23.376;2023-07-16T09:50:28;20.00;18.00;15.50
72307;PMS5003;60257;42.638;23.376;2023-07-16T09:52:57;23.25;23.25;16.50
72307;PMS5003;60257;42.638;23.376;2023-07-16T09:55:23;24.50;22.25;16.75
72307;PMS5003;60257;42.638;23.376;2023-07-16T09:57:50;22.00;22.00;17.00
72307;PMS5003;60257;42.638;23.376;2023-07-16T10:00:18;19.50;18.25;14.00
72307;PMS5003;60257;42.638;23.376;2023-07-16T10:02:46;25.25;24.75;18.50
72307;PMS5003;60257;42.638;23.376;2023-07-16T10:07:38;24.75;24.75;17.00
72307;PMS5003;60257;42.638;23.376;2023-07-16T10:10:07;27.50;26.00;17.75
72307;PMS5003;60257;42.638;23.376;2023-07-16T10:12:34;29.00;27.00;19.25
72307;PMS5003;60257;42.638;23.376;2023-07-16T10:15:00;17.75;17.75;13.25
72307;PMS5003;60257;42.638;23.376;2023-07-16T10:17:30;28.50;28.25;20.00
72307;PMS5003;60257;42.638;23.376;2023-07-16T10:19:57;28.25;28.25;20.25
72307;PMS5003;60257;42.638;23.376;2023-07-16T10:22:33;25.25;24.00;18.00
72307;PMS5003;60257;42.638;23.376;2023-07-16T10:25:01;29.50;28.50;20.25
72307;PMS5003;60257;42.638;23.376;2023-07-16T10:27:28;26.50;25.00;17.75
72307;PMS5003;60257;42.638;23.376;2023-07-16T10:29:54;25.00;25.00;18.00
72307;PMS5003;60257;42.638;23.376;2023-07-16T10:32:20;24.75;24.75;19.00
72307;PMS5003;60257;42.638;23.376;2023-07-16T10:34:46;25.25;25.25;19.50
72307;PMS5003;60257;42.638;23.376;2023-07-16T10:37:11;27.00;27.00;18.00
72307;PMS5003;60257;42.638;23.376;2023-07-16T10:39:45;26.25;25.75;19.75
72307;PMS5003;60257;42.638;23.376;2023-07-16T10:42:15;31.25;29.25;20.75
72307;PMS5003;60257;42.638;23.376;2023-07-16T10:44:42;32.75;30.00;20.00
72307;PMS5003;60257;42.638;23.376;2023-07-16T10:47:08;29.75;28.50;20.00
72307;PMS5003;60257;42.638;23.376;2023-07-16T10:49:35;24.00;22.25;14.75
72307;PMS5003;60257;42.638;23.376;2023-07-16T10:52:01;32.75;31.50;21.00
72307;PMS5003;60257;42.638;23.376;2023-07-16T10:54:27;27.00;26.50;18.25
72307;PMS5003;60257;42.638;23.376;2023-07-16T10:56:53;28.50;28.50;20.50
72307;PMS5003;60257;42.638;23.376;2023-07-16T10:59:18;30.75;30.25;20.00
72307;PMS5003;60257;42.638;23.376;2023-07-16T11:01:44;33.00;30.50;21.50
72307;PMS5003;60257;42.638;23.376;2023-07-16T11:04:10;30.75;29.00;20.50
72307;PMS5003;60257;42.638;23.376;2023-07-16T11:06:35;26.00;25.00;17.75
72307;PMS5003;60257;42.638;23.376;2023-07-16T11:09:07;29.75;28.75;20.50
72307;PMS5003;60257;42.638;23.376;2023-07-16T11:11:33;27.50;27.50;20.00
72307;PMS5003;60257;42.638;23.376;2023-07-16T11:13:59;27.50;27.50;20.00
72307;PMS5003;60257;42.638;23.376;2023-07-16T11:16:25;27.75;25.75;20.00
72307;PMS5003;60257;42.638;23.376;2023-07-16T11:18:50;30.25;29.25;19.75
72307;PMS5003;60257;42.638;23.376;2023-07-16T11:21:19;25.75;25.00;17.50
72307;PMS5003;60257;42.638;23.376;2023-07-16T11:23:45;26.75;26.75;18.75
72307;PMS5003;60257;42.638;23.376;2023-07-16T11:26:10;32.00;29.50;21.25
72307;PMS5003;60257;42.638;23.376;2023-07-16T11:28:37;27.00;25.25;17.50
72307;PMS5003;60257;42.638;23.376;2023-07-16T11:31:13;31.75;30.50;21.75
72307;PMS5003;60257;42.638;23.376;2023-07-16T11:33:46;34.25;31.25;20.00
72307;PMS5003;60257;42.638;23.376;2023-07-16T11:36:11;29.75;27.25;19.00
72307;PMS5003;60257;42.638;23.376;2023-07-16T11:38:38;28.75;28.75;20.50
72307;PMS5003;60257;42.638;23.376;2023-07-16T11:41:04;28.25;28.00;20.00
72307;PMS5003;60257;42.638;23.376;2023-07-16T11:43:36;23.00;22.75;18.50
72307;PMS5003;60257;42.638;23.376;2023-07-16T11:46:05;27.50;27.50;20.25
72307;PMS5003;60257;42.638;23.376;2023-07-16T11:48:41;33.25;30.75;21.75
72307;PMS5003;60257;42.638;23.376;2023-07-16T11:51:06;28.00;28.00;21.25
72307;PMS5003;60257;42.638;23.376;2023-07-16T11:53:32;33.25;30.00;20.75
72307;PMS5003;60257;42.638;23.376;2023-07-16T11:55:57;31.50;30.00;20.75
72307;PMS5003;60257;42.638;23.376;2023-07-16T11:58:23;34.00;30.25;21.25
72307;PMS5003;60257;42.638;23.376;2023-07-16T12:00:48;28.00;27.75;20.00
72307;PMS5003;60257;42.638;23.376;2023-07-16T12:03:19;26.25;26.25;18.75
72307;PMS5003;60257;42.638;23.376;2023-07-16T12:05:44;22.75;21.75;18.75
72307;PMS5003;60257;42.638;23.376;2023-07-16T12:08:10;26.25;26.25;19.50
72307;PMS5003;60257;42.638;23.376;2023-07-16T12:10:39;26.25;24.75;18.50
72307;PMS5003;60257;42.638;23.376;2023-07-16T12:13:05;34.00;29.00;20.00
72307;PMS5003;60257;42.638;23.376;2023-07-16T12:15:31;28.25;27.75;19.00
72307;PMS5003;60257;42.638;23.376;2023-07-16T12:17:57;29.50;29.25;20.25
72307;PMS5003;60257;42.638;23.376;2023-07-16T12:20:22;29.50;28.50;20.50
72307;PMS5003;60257;42.638;23.376;2023-07-16T12:22:48;32.00;30.00;20.75
72307;PMS5003;60257;42.638;23.376;2023-07-16T12:25:13;22.00;20.25;16.75
72307;PMS5003;60257;42.638;23.376;2023-07-16T12:27:41;29.00;27.75;19.25
72307;PMS5003;60257;42.638;23.376;2023-07-16T12:30:06;27.75;27.50;20.00
72307;PMS5003;60257;42.638;23.376;2023-07-16T12:32:33;25.25;25.25;18.25
72307;PMS5003;60257;42.638;23.376;2023-07-16T12:34:58;30.00;28.50;21.50
72307;PMS5003;60257;42.638;23.376;2023-07-16T12:37:25;30.00;28.25;19.75
72307;PMS5003;60257;42.638;23.376;2023-07-16T12:39:51;26.00;25.75;18.00
72307;PMS5003;60257;42.638;23.376;2023-07-16T12:42:16;25.25;24.75;16.75
72307;PMS5003;60257;42.638;23.376;2023-07-16T12:44:42;23.75;23.25;19.00
72307;PMS5003;60257;42.638;23.376;2023-07-16T12:47:07;28.50;27.50;19.00
72307;PMS5003;60257;42.638;23.376;2023-07-16T12:49:35;29.00;27.50;18.25
72307;PMS5003;60257;42.638;23.376;2023-07-16T12:52:01;26.25;26.25;18.50
72307;PMS5003;60257;42.638;23.376;2023-07-16T12:54:27;24.50;24.50;19.75
72307;PMS5003;60257;42.638;23.376;2023-07-16T12:56:52;25.75;25.75;17.50
72307;PMS5003;60257;42.638;23.376;2023-07-16T12:59:18;28.00;28.00;19.50
72307;PMS5003;60257;42.638;23.376;2023-07-16T13:01:43;29.75;28.75;21.25
72307;PMS5003;60257;42.638;23.376;2023-07-16T13:04:08;25.50;25.50;20.25
72307;PMS5003;60257;42.638;23.376;2023-07-16T13:06:34;27.75;27.00;20.00
72307;PMS5003;60257;42.638;23.376;2023-07-16T13:08:59;24.00;24.00;16.00
72307;PMS5003;60257;42.638;23.376;2023-07-16T13:11:25;23.50;23.50;16.50
72307;PMS5003;60257;42.638;23.376;2023-07-16T13:13:51;27.25;25.75;19.75
72307;PMS5003;60257;42.638;23.376;2023-07-16T13:16:17;27.50;27.50;20.25
72307;PMS5003;60257;42.638;23.376;2023-07-16T13:18:42;25.00;25.00;18.25
72307;PMS5003;60257;42.638;23.376;2023-07-16T13:21:07;30.00;28.50;18.50
72307;PMS5003;60257;42.638;23.376;2023-07-16T13:23:33;27.25;27.00;19.75
72307;PMS5003;60257;42.638;23.376;2023-07-16T13:25:58;28.75;27.25;19.25
72307;PMS5003;60257;42.638;23.376;2023-07-16T13:28:24;17.25;17.25;15.25
72307;PMS5003;60257;42.638;23.376;2023-07-16T13:30:49;28.00;26.50;19.25
72307;PMS5003;60257;42.638;23.376;2023-07-16T13:33:15;28.50;28.25;20.25
72307;PMS5003;60257;42.638;23.376;2023-07-16T13:35:41;26.25;26.25;18.00
72307;PMS5003;60257;42.638;23.376;2023-07-16T13:38:06;26.00;26.00;18.00
72307;PMS5003;60257;42.638;23.376;2023-07-16T13:40:32;28.25;28.25;20.50